createdAt,value
2022-10-15T00:00:39.809Z,12.88
2022-10-15T00:03:08.355Z,12.57
2022-10-15T00:05:38.289Z,12.55
2022-10-15T00:08:07.309Z,11.38
2022-10-15T00:10:35.871Z,12.77
2022-10-15T00:13:06.087Z,13.65
2022-10-15T00:15:34.448Z,13.20
2022-10-15T00:18:02.779Z,13.40
2022-10-15T00:20:31.638Z,13.95
2022-10-15T00:22:59.977Z,13.75
2022-10-15T00:25:28.278Z,12.05
2022-10-15T00:27:56.609Z,13.05
2022-10-15T00:30:26.296Z,12.95
2022-10-15T00:32:54.643Z,13.25
2022-10-15T00:35:22.969Z,12.32
2022-10-15T00:37:51.295Z,13.40
2022-10-15T00:40:20.161Z,11.77
2022-10-15T00:42:48.555Z,13.00
2022-10-15T00:45:17.913Z,12.25
2022-10-15T00:47:49.715Z,11.80
2022-10-15T00:50:23.459Z,11.27
2022-10-15T00:52:59.344Z,12.18
2022-10-15T00:55:30.427Z,9.93
2022-10-15T00:58:00.997Z,12.82
2022-10-15T01:00:30.109Z,12.45
2022-10-15T01:02:59.825Z,12.27
2022-10-15T01:05:28.608Z,12.20
2022-10-15T01:07:56.955Z,12.38
2022-10-15T01:10:29.852Z,12.18
2022-10-15T01:13:00.484Z,11.75
2022-10-15T01:15:31.374Z,13.52
2022-10-15T01:18:01.935Z,11.80
2022-10-15T01:20:43.550Z,12.50
2022-10-15T01:23:41.162Z,12.05
2022-10-15T01:26:19.713Z,13.80
2022-10-15T01:28:50.688Z,11.77
2022-10-15T01:31:24.160Z,12.18
2022-10-15T01:33:55.524Z,11.20
2022-10-15T01:36:26.962Z,11.80
2022-10-15T01:38:58.397Z,12.00
2022-10-15T01:41:29.638Z,11.75
2022-10-15T01:44:01.169Z,12.60
2022-10-15T01:46:33.992Z,10.98
2022-10-15T01:49:05.335Z,11.30
2022-10-15T01:51:35.677Z,11.50
2022-10-15T01:54:04.170Z,11.20
2022-10-15T01:56:33.738Z,11.63
2022-10-15T01:59:03.041Z,11.80
2022-10-15T02:01:32.841Z,12.02
2022-10-15T02:04:01.230Z,12.25
2022-10-15T02:06:33.938Z,13.18
2022-10-15T02:09:07.219Z,12.77
2022-10-15T02:11:42.126Z,12.45
2022-10-15T02:14:12.142Z,12.50
2022-10-15T02:16:43.119Z,11.55
2022-10-15T02:19:14.563Z,12.20
2022-10-15T02:21:44.856Z,11.68
2022-10-15T02:24:15.810Z,12.75
2022-10-15T02:26:44.633Z,11.55
2022-10-15T02:29:14.231Z,13.20
2022-10-15T02:31:45.633Z,11.75
2022-10-15T02:34:16.020Z,11.95
2022-10-15T02:36:44.632Z,12.35
2022-10-15T02:39:14.353Z,12.63
2022-10-15T02:41:42.832Z,12.18
2022-10-15T02:44:11.168Z,13.88
2022-10-15T02:46:39.601Z,13.73
2022-10-15T02:49:09.820Z,13.43
2022-10-15T02:51:40.513Z,13.45
2022-10-15T02:54:09.189Z,13.02
2022-10-15T02:56:39.293Z,13.15
2022-10-15T02:59:07.847Z,13.88
2022-10-15T03:01:36.621Z,16.00
2022-10-15T03:04:05.156Z,14.15
2022-10-15T03:06:34.858Z,14.60
2022-10-15T03:09:03.420Z,14.30
2022-10-15T03:11:31.777Z,16.15
2022-10-15T03:14:00.148Z,15.65
2022-10-15T03:16:28.529Z,16.27
2022-10-15T03:18:56.928Z,14.07
2022-10-15T03:21:25.272Z,15.70
2022-10-15T03:23:54.989Z,14.48
2022-10-15T03:26:23.337Z,15.82
2022-10-15T03:28:51.832Z,16.13
2022-10-15T03:31:20.544Z,16.45
2022-10-15T03:33:48.986Z,16.55
2022-10-15T03:36:17.346Z,16.63
2022-10-15T03:38:45.690Z,16.85
2022-10-15T03:41:15.401Z,16.92
2022-10-15T03:43:43.750Z,16.15
2022-10-15T03:46:12.086Z,16.17
2022-10-15T03:48:40.425Z,15.73
2022-10-15T03:51:08.780Z,16.05
2022-10-15T03:53:37.258Z,17.48
2022-10-15T03:56:06.263Z,17.38
2022-10-15T03:58:36.059Z,17.73
2022-10-15T04:01:09.748Z,16.17
2022-10-15T04:03:38.258Z,17.10
2022-10-15T04:06:06.757Z,16.42
2022-10-15T04:08:35.183Z,16.65
2022-10-15T04:11:03.657Z,16.30
2022-10-15T04:13:32.044Z,15.10
2022-10-15T04:16:01.783Z,17.20
2022-10-15T04:18:30.238Z,16.80
2022-10-15T04:21:00.360Z,16.85
2022-10-15T04:23:28.782Z,17.98
2022-10-15T04:26:00.384Z,18.00
2022-10-15T04:28:29.158Z,17.23
2022-10-15T04:30:58.508Z,18.27
2022-10-15T04:33:28.571Z,17.95
2022-10-15T04:36:01.091Z,17.75
2022-10-15T04:38:29.508Z,19.23
2022-10-15T04:41:02.739Z,19.48
2022-10-15T04:43:31.142Z,19.98
2022-10-15T04:45:59.771Z,20.88
2022-10-15T04:48:31.100Z,20.58
2022-10-15T04:51:04.633Z,20.73
2022-10-15T04:53:33.239Z,21.95
2022-10-15T04:56:02.172Z,22.15
2022-10-15T04:58:31.340Z,21.67
2022-10-15T05:01:01.793Z,21.48
2022-10-15T05:06:05.420Z,21.48
2022-10-15T05:08:34.394Z,21.85
2022-10-15T05:11:03.102Z,21.77
2022-10-15T05:13:31.981Z,21.33
2022-10-15T05:16:10.075Z,20.40
2022-10-15T05:18:40.112Z,20.45
2022-10-15T05:21:08.765Z,20.95
2022-10-15T05:23:37.874Z,19.95
2022-10-15T05:26:06.872Z,19.42
2022-10-15T05:28:35.490Z,20.45
2022-10-15T05:31:07.697Z,19.02
2022-10-15T05:33:36.386Z,20.98
2022-10-15T05:36:13.066Z,18.75
2022-10-15T05:38:41.536Z,19.63
2022-10-15T05:41:10.102Z,18.83
2022-10-15T05:43:41.387Z,19.40
2022-10-15T05:46:10.489Z,19.98
2022-10-15T05:48:39.064Z,20.08
2022-10-15T05:51:08.317Z,19.52
2022-10-15T05:53:38.219Z,19.33
2022-10-15T05:56:06.691Z,20.48
2022-10-15T05:58:37.373Z,19.48
2022-10-15T06:01:08.226Z,20.52
2022-10-15T06:03:37.332Z,20.02
2022-10-15T06:06:05.862Z,19.95
2022-10-15T06:08:34.219Z,20.55
2022-10-15T06:11:08.607Z,21.33
2022-10-15T06:13:39.372Z,20.80
2022-10-15T06:16:08.083Z,21.90
2022-10-15T06:18:36.489Z,20.52
2022-10-15T06:21:05.056Z,19.75
2022-10-15T06:23:33.491Z,21.80
2022-10-15T06:26:04.201Z,21.67
2022-10-15T06:28:34.202Z,22.40
2022-10-15T06:31:02.962Z,24.35
2022-10-15T06:33:31.570Z,23.15
2022-10-15T06:36:02.797Z,23.25
2022-10-15T06:38:31.173Z,22.02
2022-10-15T06:40:59.513Z,22.60
2022-10-15T06:43:31.037Z,22.80
2022-10-15T06:46:02.283Z,21.58
2022-10-15T06:48:30.673Z,22.52
2022-10-15T06:51:00.826Z,22.60
2022-10-15T06:53:29.209Z,22.90
2022-10-15T06:55:59.001Z,23.30
2022-10-15T06:58:27.615Z,24.40
2022-10-15T07:01:01.060Z,24.80
2022-10-15T07:03:30.753Z,25.08
2022-10-15T07:06:03.486Z,25.13
2022-10-15T07:08:31.834Z,25.40
2022-10-15T07:11:00.492Z,27.45
2022-10-15T07:13:29.050Z,25.73
2022-10-15T07:15:57.395Z,26.35
2022-10-15T07:18:25.868Z,29.58
2022-10-15T07:20:55.584Z,28.80
2022-10-15T07:23:27.105Z,29.33
2022-10-15T07:25:56.393Z,28.73
2022-10-15T07:28:24.804Z,26.73
2022-10-15T07:30:53.393Z,26.00
2022-10-15T07:33:21.864Z,25.42
2022-10-15T07:35:50.218Z,25.75
2022-10-15T07:38:19.920Z,24.95
2022-10-15T07:40:48.238Z,26.08
2022-10-15T07:43:17.064Z,23.88
2022-10-15T07:45:49.407Z,24.20
2022-10-15T07:48:17.796Z,22.85
2022-10-15T07:50:46.126Z,23.77
2022-10-15T07:53:16.153Z,23.45
2022-10-15T07:55:48.955Z,23.67
2022-10-15T07:58:17.440Z,22.83
2022-10-15T08:00:45.961Z,22.58
2022-10-15T08:03:14.316Z,23.48
2022-10-15T08:05:42.668Z,23.80
2022-10-15T08:08:10.998Z,22.65
2022-10-15T08:10:39.343Z,23.58
2022-10-15T08:13:09.067Z,22.95
2022-10-15T08:15:40.287Z,22.30
2022-10-15T08:18:09.998Z,22.38
2022-10-15T08:20:38.343Z,22.65
2022-10-15T08:23:06.674Z,21.35
2022-10-15T08:25:35.268Z,21.27
2022-10-15T08:28:03.647Z,19.88
2022-10-15T08:30:33.426Z,19.23
2022-10-15T08:33:01.980Z,17.77
2022-10-15T08:35:35.275Z,18.30
2022-10-15T08:38:03.704Z,16.95
2022-10-15T08:40:32.270Z,15.82
2022-10-15T08:43:00.830Z,15.88
2022-10-15T08:45:31.841Z,14.75
2022-10-15T08:48:04.813Z,13.05
2022-10-15T08:50:37.868Z,12.68
2022-10-15T08:53:06.510Z,12.65
2022-10-15T08:55:37.752Z,12.35
2022-10-15T08:58:13.789Z,12.27
2022-10-15T09:00:44.767Z,12.00
2022-10-15T09:03:30.732Z,11.88
2022-10-15T09:06:03.726Z,9.80
2022-10-15T09:08:33.797Z,10.07
2022-10-15T09:11:04.007Z,9.57
2022-10-15T09:16:14.675Z,8.10
2022-10-15T09:18:47.864Z,6.45
2022-10-15T09:21:16.805Z,5.50
2022-10-15T09:23:45.624Z,5.53
2022-10-15T09:26:24.557Z,4.53
2022-10-15T09:28:56.388Z,3.97
2022-10-15T09:31:26.948Z,3.95
2022-10-15T09:33:59.234Z,3.25
2022-10-15T09:36:32.825Z,2.85
2022-10-15T09:39:09.880Z,2.53
2022-10-15T09:41:42.994Z,2.47
2022-10-15T09:44:14.241Z,2.55
2022-10-15T09:46:46.715Z,2.28
2022-10-15T09:49:19.489Z,2.38
2022-10-15T09:51:50.757Z,2.30
2022-10-15T09:54:25.057Z,1.95
2022-10-15T09:56:55.456Z,2.58
2022-10-15T09:59:24.616Z,2.33
2022-10-15T10:01:59.954Z,2.10
2022-10-15T10:04:30.991Z,1.70
2022-10-15T10:07:00.330Z,1.80
2022-10-15T10:09:31.811Z,1.60
2022-10-15T10:12:01.773Z,1.48
2022-10-15T10:14:32.132Z,1.30
2022-10-15T10:17:07.400Z,1.25
2022-10-15T10:19:40.369Z,1.38
2022-10-15T10:22:13.280Z,1.30
2022-10-15T10:24:41.751Z,1.20
2022-10-15T10:27:19.345Z,1.10
2022-10-15T10:29:50.504Z,1.35
2022-10-15T10:32:21.178Z,1.17
2022-10-15T10:34:55.448Z,1.15
2022-10-15T10:37:24.674Z,1.45
2022-10-15T10:39:56.835Z,1.33
2022-10-15T10:42:27.489Z,1.40
2022-10-15T10:44:56.118Z,1.55
2022-10-15T10:47:28.309Z,1.58
2022-10-15T10:49:58.761Z,1.55
2022-10-15T10:52:28.357Z,1.70
2022-10-15T10:55:08.579Z,1.90
2022-10-15T10:57:41.693Z,1.83
2022-10-15T11:00:13.970Z,1.80
2022-10-15T11:02:44.160Z,1.98
2022-10-15T11:05:14.667Z,2.33
2022-10-15T11:07:48.743Z,1.73
2022-10-15T11:10:20.600Z,1.95
2022-10-15T11:12:58.223Z,2.03
2022-10-15T11:15:30.584Z,2.17
2022-10-15T11:18:05.050Z,2.00
2022-10-15T11:20:53.503Z,2.00
2022-10-15T11:23:32.481Z,2.10
2022-10-15T11:26:04.913Z,1.92
2022-10-15T11:28:43.964Z,2.03
2022-10-15T11:31:15.449Z,2.22
2022-10-15T11:33:53.444Z,1.88
2022-10-15T11:36:34.256Z,1.80
2022-10-15T11:39:11.224Z,1.83
2022-10-15T11:41:42.313Z,1.80
2022-10-15T11:44:24.855Z,1.83
2022-10-15T11:47:00.898Z,1.67
2022-10-15T11:49:36.549Z,1.92
2022-10-15T11:52:15.497Z,1.90
2022-10-15T11:54:45.466Z,1.80
2022-10-15T11:57:16.526Z,1.85
2022-10-15T11:59:48.756Z,1.80
2022-10-15T12:02:19.115Z,1.98
2022-10-15T12:04:49.524Z,1.80
2022-10-15T12:07:22.246Z,2.03
2022-10-15T12:09:53.816Z,1.83
2022-10-15T12:12:26.965Z,1.77
2022-10-15T12:15:10.505Z,2.00
2022-10-15T12:17:44.220Z,2.13
2022-10-15T12:20:15.341Z,2.05
2022-10-15T12:22:55.707Z,2.00
2022-10-15T12:25:51.396Z,2.03
2022-10-15T12:28:21.997Z,1.98
2022-10-15T12:30:58.030Z,1.73
2022-10-15T12:33:36.582Z,1.90
2022-10-15T12:36:09.465Z,1.92
2022-10-15T12:38:41.391Z,1.92
2022-10-15T12:41:11.105Z,1.48
2022-10-15T12:43:41.660Z,1.73
2022-10-15T12:46:11.536Z,1.63
2022-10-15T12:48:41.365Z,1.70
2022-10-15T12:51:42.416Z,1.88
2022-10-15T12:54:43.779Z,1.80
2022-10-15T12:57:30.468Z,1.80
2022-10-15T13:00:01.301Z,1.80
2022-10-15T13:02:34.027Z,2.05
2022-10-15T13:05:02.515Z,1.80
2022-10-15T13:07:30.869Z,2.22
2022-10-15T13:09:59.270Z,1.80
2022-10-15T13:12:29.296Z,1.88
2022-10-15T13:14:59.517Z,1.75
2022-10-15T13:17:29.272Z,2.05
2022-10-15T13:19:59.841Z,1.48
2022-10-15T13:22:29.333Z,1.80
2022-10-15T13:24:58.206Z,1.58
2022-10-15T13:27:27.281Z,1.90
2022-10-15T13:29:57.186Z,1.95
2022-10-15T13:32:27.076Z,1.50
2022-10-15T13:34:58.508Z,1.50
2022-10-15T13:37:31.328Z,1.58
2022-10-15T13:40:03.207Z,1.95
2022-10-15T13:42:35.255Z,1.80
2022-10-15T13:45:04.792Z,1.75
2022-10-15T13:47:34.384Z,1.23
2022-10-15T13:50:19.634Z,1.60
2022-10-15T13:52:50.340Z,1.20
2022-10-15T13:55:23.618Z,1.20
2022-10-15T13:57:56.814Z,1.27
2022-10-15T14:00:27.631Z,1.20
2022-10-15T14:03:09.047Z,1.10
2022-10-15T14:05:38.846Z,1.20
2022-10-15T14:08:07.287Z,1.25
2022-10-15T14:10:36.836Z,1.35
2022-10-15T14:13:05.277Z,1.30
2022-10-15T14:15:43.990Z,1.17
2022-10-15T14:18:12.993Z,1.50
2022-10-15T14:20:46.172Z,1.80
2022-10-15T14:23:18.420Z,2.47
2022-10-15T14:25:46.919Z,2.33
2022-10-15T14:28:20.906Z,2.20
2022-10-15T14:30:49.575Z,1.58
2022-10-15T14:33:47.844Z,1.40
2022-10-15T14:36:26.647Z,1.80
2022-10-15T14:38:55.951Z,1.90
2022-10-15T14:41:29.438Z,1.80
2022-10-15T14:44:05.203Z,1.90
2022-10-15T14:46:43.526Z,2.05
2022-10-15T14:49:19.663Z,1.98
2022-10-15T14:51:54.451Z,2.35
2022-10-15T14:54:25.932Z,2.38
2022-10-15T14:56:54.453Z,2.10
2022-10-15T14:59:31.362Z,2.45
2022-10-15T15:02:02.962Z,2.45
2022-10-15T15:04:35.281Z,2.33
2022-10-15T15:07:05.003Z,2.40
2022-10-15T15:09:33.377Z,2.05
2022-10-15T15:12:01.725Z,2.45
2022-10-15T15:14:30.180Z,2.30
2022-10-15T15:16:58.508Z,2.38
2022-10-15T15:19:26.990Z,2.58
2022-10-15T15:21:56.163Z,2.67
2022-10-15T15:24:27.837Z,2.65
2022-10-15T15:26:56.209Z,2.60
2022-10-15T15:29:24.629Z,2.95
2022-10-15T15:31:53.036Z,3.10
2022-10-15T15:34:23.670Z,3.40
2022-10-15T15:36:52.110Z,3.35
2022-10-15T15:39:20.529Z,2.85
2022-10-15T15:41:50.304Z,2.90
2022-10-15T15:44:18.662Z,2.95
2022-10-15T15:46:50.284Z,2.63
2022-10-15T15:49:19.333Z,2.65
2022-10-15T15:51:47.726Z,3.08
2022-10-15T15:54:20.306Z,3.15
2022-10-15T15:56:50.058Z,3.20
2022-10-15T15:59:19.521Z,3.42
2022-10-15T16:01:48.070Z,3.10
2022-10-15T16:04:17.220Z,2.97
2022-10-15T16:06:48.746Z,2.90
2022-10-15T16:09:18.295Z,3.30
2022-10-15T16:11:47.234Z,3.33
2022-10-15T16:14:17.032Z,3.25
2022-10-15T16:16:45.435Z,3.80
2022-10-15T16:19:16.846Z,4.10
2022-10-15T16:21:45.177Z,3.50
2022-10-15T16:24:13.658Z,3.58
2022-10-15T16:26:41.985Z,3.40
2022-10-15T16:29:10.362Z,3.50
2022-10-15T16:31:40.123Z,3.50
2022-10-15T16:34:08.734Z,3.53
2022-10-15T16:36:37.068Z,3.85
2022-10-15T16:39:05.843Z,3.45
2022-10-15T16:41:34.216Z,3.05
2022-10-15T16:44:10.780Z,3.28
2022-10-15T16:46:40.518Z,3.03
2022-10-15T16:49:08.892Z,2.85
2022-10-15T16:51:39.852Z,3.42
2022-10-15T16:54:12.831Z,3.22
2022-10-15T16:56:41.164Z,2.78
2022-10-15T16:59:09.584Z,3.00
2022-10-15T17:01:38.357Z,3.45
2022-10-15T17:04:08.159Z,3.00
2022-10-15T17:06:36.570Z,2.97
2022-10-15T17:09:05.125Z,3.45
2022-10-15T17:11:34.789Z,3.15
2022-10-15T17:14:04.393Z,2.60
2022-10-15T17:16:36.767Z,1.90
2022-10-15T17:19:05.493Z,1.92
2022-10-15T17:21:35.589Z,2.17
2022-10-15T17:24:05.040Z,1.90
2022-10-15T17:26:36.226Z,1.50
2022-10-15T17:29:05.438Z,1.70
2022-10-15T17:31:36.471Z,2.20
2022-10-15T17:34:06.488Z,2.13
2022-10-15T17:36:39.084Z,2.10
2022-10-15T17:39:07.493Z,2.45
2022-10-15T17:41:37.327Z,2.08
2022-10-15T17:44:05.890Z,2.38
2022-10-15T17:46:34.579Z,1.95
2022-10-15T17:49:03.560Z,1.70
2022-10-15T17:51:33.127Z,2.00
2022-10-15T17:54:03.192Z,1.90
2022-10-15T17:56:32.510Z,2.30
2022-10-15T17:59:00.861Z,2.22
2022-10-15T18:01:39.440Z,2.15
2022-10-15T18:04:14.556Z,2.33
2022-10-15T18:06:45.188Z,2.40
2022-10-15T18:09:14.953Z,2.45
2022-10-15T18:11:45.452Z,1.90
2022-10-15T18:14:13.912Z,2.63
2022-10-15T18:16:43.266Z,2.05
2022-10-15T18:19:11.835Z,2.33
2022-10-15T18:21:40.327Z,2.45
2022-10-15T18:24:08.879Z,2.72
2022-10-15T18:26:38.615Z,2.50
2022-10-15T18:29:07.090Z,3.00
2022-10-15T18:31:35.451Z,2.60
2022-10-15T18:34:03.869Z,2.60
2022-10-15T18:36:33.196Z,2.58
2022-10-15T18:39:01.808Z,6.60
2022-10-15T18:41:33.550Z,7.85
2022-10-15T18:44:04.177Z,6.78
2022-10-15T18:46:33.887Z,4.93
2022-10-15T18:49:02.801Z,5.25
2022-10-15T18:51:31.198Z,4.80
2022-10-15T18:54:00.677Z,6.25
2022-10-15T18:56:29.369Z,5.25
2022-10-15T18:58:57.842Z,5.47
2022-10-15T19:01:29.359Z,5.65
2022-10-15T19:03:58.339Z,5.32
2022-10-15T19:06:27.628Z,5.43
2022-10-15T19:08:58.292Z,5.90
2022-10-15T19:11:31.487Z,5.40
2022-10-15T19:14:00.390Z,5.43
2022-10-15T19:16:30.290Z,5.55
2022-10-15T19:18:59.596Z,5.82
2022-10-15T19:21:28.100Z,4.88
2022-10-15T19:23:56.472Z,5.10
2022-10-15T19:26:25.073Z,5.13
2022-10-15T19:28:53.612Z,4.10
2022-10-15T19:31:24.219Z,4.55
2022-10-15T19:33:54.084Z,4.70
2022-10-15T19:36:23.273Z,4.40
2022-10-15T19:38:52.003Z,4.40
2022-10-15T19:41:20.711Z,4.40
2022-10-15T19:43:49.078Z,4.45
2022-10-15T19:46:17.459Z,5.05
2022-10-15T19:48:45.826Z,4.07
2022-10-15T19:51:15.807Z,4.47
2022-10-15T19:53:44.258Z,4.22
2022-10-15T19:56:13.409Z,4.20
2022-10-15T19:58:41.958Z,3.95
2022-10-15T20:01:12.005Z,3.80
2022-10-15T20:03:40.410Z,4.35
2022-10-15T20:06:09.372Z,3.72
2022-10-15T20:08:39.180Z,3.55
2022-10-15T20:11:08.004Z,3.13
2022-10-15T20:13:37.088Z,3.85
2022-10-15T20:16:06.586Z,3.53
2022-10-15T20:18:35.417Z,3.42
2022-10-15T20:21:08.448Z,3.65
2022-10-15T20:23:36.793Z,3.58
2022-10-15T20:26:07.626Z,4.05
2022-10-15T20:28:37.623Z,3.10
2022-10-15T20:31:07.149Z,3.53
2022-10-15T20:33:35.493Z,3.55
2022-10-15T20:36:07.127Z,3.70
2022-10-15T20:38:35.954Z,3.53
2022-10-15T20:41:09.549Z,3.85
2022-10-15T20:43:38.190Z,3.30
2022-10-15T20:46:08.547Z,3.78
2022-10-15T20:48:37.088Z,3.95
2022-10-15T20:51:07.697Z,4.20
2022-10-15T20:53:36.559Z,4.20
2022-10-15T20:56:04.997Z,5.00
2022-10-15T20:58:36.569Z,5.32
2022-10-15T21:01:05.059Z,5.82
2022-10-15T21:03:33.966Z,5.45
2022-10-15T21:06:02.774Z,5.53
2022-10-15T21:08:31.129Z,5.75
2022-10-15T21:11:03.533Z,6.10
2022-10-15T21:13:32.513Z,6.50
2022-10-15T21:16:06.328Z,6.88
2022-10-15T21:18:40.606Z,6.50
2022-10-15T21:21:10.274Z,6.38
2022-10-15T21:23:39.627Z,6.72
2022-10-15T21:26:08.206Z,6.70
2022-10-15T21:28:37.333Z,6.60
2022-10-15T21:31:07.608Z,6.70
2022-10-15T21:33:36.793Z,5.68
2022-10-15T21:36:11.748Z,7.07
2022-10-15T21:38:40.568Z,6.47
2022-10-15T21:41:09.422Z,6.38
2022-10-15T21:43:37.923Z,6.85
2022-10-15T21:46:09.127Z,6.43
2022-10-15T21:48:38.061Z,6.38
2022-10-15T21:51:07.080Z,6.32
2022-10-15T21:53:36.771Z,6.15
2022-10-15T21:56:08.135Z,5.47
2022-10-15T21:58:37.888Z,6.18
2022-10-15T22:01:14.560Z,5.53
2022-10-15T22:03:46.019Z,6.20
2022-10-15T22:06:14.638Z,5.85
2022-10-15T22:08:43.160Z,6.40
2022-10-15T22:11:12.614Z,6.13
2022-10-15T22:13:41.515Z,6.22
2022-10-15T22:16:11.606Z,5.57
2022-10-15T22:18:41.050Z,5.50
2022-10-15T22:21:10.978Z,5.30
2022-10-15T22:23:39.340Z,5.45
2022-10-15T22:26:07.856Z,5.20
2022-10-15T22:28:36.316Z,5.10
2022-10-15T22:31:05.757Z,5.63
2022-10-15T22:33:36.064Z,5.38
2022-10-15T22:36:05.109Z,5.05
2022-10-15T22:38:33.796Z,5.10
2022-10-15T22:41:04.765Z,4.95
2022-10-15T22:43:34.839Z,4.90
2022-10-15T22:46:03.378Z,5.15
2022-10-15T22:48:35.988Z,5.40
2022-10-15T22:51:07.364Z,4.85
2022-10-15T22:53:35.861Z,5.28
2022-10-15T22:56:05.265Z,4.90
2022-10-15T22:58:34.237Z,4.15
2022-10-15T23:01:08.668Z,4.88
2022-10-15T23:03:38.945Z,5.55
2022-10-15T23:06:07.572Z,4.80
2022-10-15T23:08:36.246Z,4.68
2022-10-15T23:11:09.503Z,4.78
2022-10-15T23:13:38.614Z,5.03
2022-10-15T23:16:07.876Z,5.50
2022-10-15T23:18:36.271Z,5.60
2022-10-15T23:21:07.379Z,5.03
2022-10-15T23:23:35.831Z,5.32
2022-10-15T23:26:04.198Z,4.78
2022-10-15T23:28:32.630Z,4.38
2022-10-15T23:31:00.959Z,4.82
2022-10-15T23:33:29.322Z,4.95
2022-10-15T23:35:58.683Z,4.80
2022-10-15T23:38:29.215Z,4.93
2022-10-15T23:41:01.444Z,4.38
2022-10-15T23:43:29.828Z,5.20
2022-10-15T23:45:58.428Z,5.03
2022-10-15T23:48:26.864Z,4.85
2022-10-15T23:50:59.307Z,5.30
2022-10-15T23:53:32.930Z,5.38
2022-10-15T23:56:03.227Z,5.65
2022-10-15T23:58:32.373Z,4.40
